Seattle Tacoma International Airport Seattle US
ICAO: KSEA
IATA: SEA
Category: Large
Scheduled Services: Yes

Elevation: 433 ft
TransAlt. 18000 ft.

Airport Communications:
APP/DEP:119.2
ATIS:118
CLNC DEL:128
GND:121.7
TWR:119.9
UNICOM:122.95

KSEA Zoom In..

If you have problems with the map follow the link
https://www.worldairports.se/pages/airport.php?
ICAO=KSEA

Runways:

(A) RW 16C length 9426 ft width 150 ft
ILS 111.70 / hdg 163

(B) RW 16L length 11901 ft width 150 ft
ILS 110.30 / hdg 163

(C) RW 16R length 8500 ft width 150 ft
ILS 110.75 / hdg 163

(D) RW 34C length 9426 ft width 150 ft
ILS 111.70 / hdg 343

(E) RW 34L length 8500 ft width 150 ft
ILS 110.75 / hdg 343

(F) RW 34R length 11901 ft width 150 ft
ILS 110.30 / hdg 343

Location; KSEA
Day. 13 / Time. 13.53 Zulu
* Altimeter: 30.09
* Temperature: 07° c. 44.6°f.
* Wind from: 180° Speed 10 kn.
Dewpoint: 03° c.
Visibility: 10 Statute Miles.
Clouds: Few 2300 ft.
Clouds: Scattered 3000 ft.
Clouds: Broken 8500 ft.

KSEA 131353Z 18010KT 10SM FEW023 SCT030 BKN085 07/03 A3009 RMK AO2 SLP199 T00670033


Wind From 180°
Speed 10 kn.

 
 
jpsmedia worldairports.se 2019   terms of use